Time,TemperatureF,DewpointF,PressureIn,WindDirection,WindDirectionDegrees,WindSpeedMPH,WindSpeedGustMPH,Humidity,HourlyPrecipIn,Conditions,Clouds,dailyrainin,SoftwareType,DateUTC
2013-07-15 00:01:00,63.0,57.7,29.54,NNW,338,0.0,0.4,83,0.00,,,0.00,WUHU216HW,2013-07-15 07:01:00,
2013-07-15 00:06:00,63.0,57.7,29.54,NNW,338,0.0,0.4,83,0.00,,,0.00,WUHU216HW,2013-07-15 07:06:00,
2013-07-15 00:11:00,63.0,57.7,29.55,NNW,338,0.0,0.4,83,0.00,,,0.00,WUHU216HW,2013-07-15 07:11:00,
2013-07-15 00:16:00,62.8,57.5,29.55,NNW,338,0.0,0.4,83,0.00,,,0.00,WUHU216HW,2013-07-15 07:16:00,
2013-07-15 00:21:00,62.8,57.5,29.55,East,90,0.9,0.9,83,0.00,,,0.00,WUHU216HW,2013-07-15 07:21:00,
2013-07-15 00:26:00,62.8,57.5,29.54,East,90,0.0,1.1,83,0.00,,,0.00,WUHU216HW,2013-07-15 07:26:00,
2013-07-15 00:31:00,62.8,57.9,29.55,East,90,0.4,1.1,84,0.00,,,0.00,WUHU216HW,2013-07-15 07:31:00,
2013-07-15 00:36:00,62.6,57.7,29.54,SE,135,0.0,0.4,84,0.00,,,0.00,WUHU216HW,2013-07-15 07:36:00,
2013-07-15 00:41:00,62.6,57.7,29.54,SE,135,0.0,0.4,84,0.00,,,0.00,WUHU216HW,2013-07-15 07:41:00,
2013-07-15 00:46:00,62.6,57.7,29.54,ESE,113,0.7,0.7,84,0.00,,,0.00,WUHU216HW,2013-07-15 07:46:00,
2013-07-15 00:51:00,62.5,57.5,29.54,ESE,113,0.0,0.7,84,0.00,,,0.00,WUHU216HW,2013-07-15 07:51:00,
2013-07-15 00:56:00,62.5,57.5,29.55,SSE,158,0.0,0.7,84,0.00,,,0.00,WUHU216HW,2013-07-15 07:56:00,
2013-07-15 01:01:00,62.5,57.5,29.54,SSW,203,0.0,0.0,84,0.00,,,0.00,WUHU216HW,2013-07-15 08:01:00,
2013-07-15 01:06:00,62.3,57.3,29.54,SE,135,0.0,0.0,84,0.00,,,0.00,WUHU216HW,2013-07-15 08:06:00,
2013-07-15 01:11:00,62.3,57.3,29.54,ESE,113,0.0,1.1,84,0.00,,,0.00,WUHU216HW,2013-07-15 08:11:00,
2013-07-15 01:16:00,62.3,57.3,29.55,ESE,113,1.1,1.1,84,0.00,,,0.00,WUHU216HW,2013-07-15 08:16:00,
2013-07-15 01:21:00,62.1,57.3,29.54,ESE,113,0.2,1.1,84,0.00,,,0.00,WUHU216HW,2013-07-15 08:21:00,
2013-07-15 01:26:00,62.1,57.3,29.54,ESE,113,0.7,1.1,84,0.00,,,0.00,WUHU216HW,2013-07-15 08:26:00,
2013-07-15 01:31:00,62.1,57.5,29.55,East,90,1.1,1.1,85,0.00,,,0.00,WUHU216HW,2013-07-15 08:31:00,
2013-07-15 01:36:00,61.9,57.3,29.55,East,90,0.7,1.1,85,0.00,,,0.00,WUHU216HW,2013-07-15 08:36:00,
2013-07-15 01:41:00,61.9,57.3,29.54,East,90,0.2,1.1,85,0.00,,,0.00,WUHU216HW,2013-07-15 08:41:00,
2013-07-15 01:46:00,61.9,57.3,29.54,East,90,0.0,1.1,85,0.00,,,0.00,WUHU216HW,2013-07-15 08:46:00,
2013-07-15 01:51:00,61.7,57.2,29.54,East,90,0.0,0.9,85,0.00,,,0.00,WUHU216HW,2013-07-15 08:51:00,
2013-07-15 01:56:00,61.7,57.2,29.54,East,90,0.0,1.1,85,0.00,,,0.00,WUHU216HW,2013-07-15 08:56:00,
2013-07-15 02:01:00,61.7,57.2,29.54,ESE,113,0.0,1.1,85,0.00,,,0.00,WUHU216HW,2013-07-15 09:01:00,
2013-07-15 02:06:00,61.6,57.1,29.54,SSE,158,0.0,1.1,85,0.00,,,0.00,WUHU216HW,2013-07-15 09:06:00,
2013-07-15 02:11:00,61.6,57.1,29.54,SE,135,0.4,1.1,85,0.00,,,0.00,WUHU216HW,2013-07-15 09:11:00,
2013-07-15 02:16:00,61.4,56.9,29.54,SE,135,0.4,0.4,85,0.00,,,0.00,WUHU216HW,2013-07-15 09:16:00,
2013-07-15 02:21:00,61.4,56.9,29.54,ESE,113,0.0,0.9,85,0.00,,,0.00,WUHU216HW,2013-07-15 09:21:00,
2013-07-15 02:26:00,61.2,56.7,29.54,ESE,113,0.0,0.9,85,0.00,,,0.00,WUHU216HW,2013-07-15 09:26:00,
2013-07-15 02:31:00,61.2,56.7,29.54,SE,135,0.0,0.4,85,0.00,,,0.00,WUHU216HW,2013-07-15 09:31:00,
2013-07-15 02:36:00,61.2,56.7,29.54,SE,135,0.0,0.4,85,0.00,,,0.00,WUHU216HW,2013-07-15 09:36:00,
2013-07-15 02:41:00,61.0,56.9,29.54,ENE,68,0.4,0.7,86,0.00,,,0.00,WUHU216HW,2013-07-15 09:41:00,
2013-07-15 02:46:00,61.0,56.9,29.54,NE,45,0.9,1.1,86,0.00,,,0.00,WUHU216HW,2013-07-15 09:46:00,
2013-07-15 02:51:00,60.8,56.7,29.54,NE,45,0.4,1.1,86,0.00,,,0.00,WUHU216HW,2013-07-15 09:51:00,
2013-07-15 02:56:00,60.8,56.7,29.54,NE,45,0.4,0.9,86,0.00,,,0.00,WUHU216HW,2013-07-15 09:56:00,
2013-07-15 03:01:00,60.8,56.7,29.54,ENE,68,0.0,1.1,86,0.00,,,0.00,WUHU216HW,2013-07-15 10:01:00,
2013-07-15 03:06:00,60.8,56.7,29.54,ENE,68,0.0,1.1,86,0.00,,,0.00,WUHU216HW,2013-07-15 10:06:00,
2013-07-15 03:11:00,60.8,56.7,29.54,ENE,68,0.0,0.0,86,0.00,,,0.00,WUHU216HW,2013-07-15 10:11:00,
2013-07-15 03:16:00,60.7,56.5,29.54,ENE,68,0.0,0.0,86,0.00,,,0.00,WUHU216HW,2013-07-15 10:16:00,
2013-07-15 03:21:00,60.7,56.5,29.53,ENE,68,0.0,0.0,86,0.00,,,0.00,WUHU216HW,2013-07-15 10:21:00,
2013-07-15 03:26:00,60.5,56.4,29.53,ENE,68,0.0,0.0,86,0.00,,,0.00,WUHU216HW,2013-07-15 10:26:00,
2013-07-15 03:31:00,60.5,56.4,29.53,ENE,68,0.0,0.0,86,0.00,,,0.00,WUHU216HW,2013-07-15 10:31:00,
2013-07-15 03:36:00,60.5,56.4,29.53,ENE,68,0.0,0.0,86,0.00,,,0.00,WUHU216HW,2013-07-15 10:36:00,
2013-07-15 03:41:00,60.3,56.2,29.53,ENE,68,0.0,0.0,86,0.00,,,0.00,WUHU216HW,2013-07-15 10:41:00,
2013-07-15 03:46:00,60.3,56.4,29.53,ENE,68,0.0,0.0,87,0.00,,,0.00,WUHU216HW,2013-07-15 10:46:00,
2013-07-15 03:51:00,60.1,56.3,29.53,ENE,68,0.0,0.0,87,0.00,,,0.00,WUHU216HW,2013-07-15 10:51:00,
2013-07-15 03:56:00,60.1,56.3,29.53,NE,45,0.0,0.0,87,0.00,,,0.00,WUHU216HW,2013-07-15 10:56:00,
2013-07-15 04:01:00,60.1,56.3,29.53,NNE,23,0.0,0.0,87,0.00,,,0.00,WUHU216HW,2013-07-15 11:01:00,
2013-07-15 04:06:00,59.9,56.1,29.53,ENE,68,0.0,0.0,87,0.00,,,0.00,WUHU216HW,2013-07-15 11:06:00,
2013-07-15 04:11:00,59.9,56.1,29.53,NNE,23,0.0,0.0,87,0.00,,,0.00,WUHU216HW,2013-07-15 11:11:00,
2013-07-15 04:16:00,59.8,55.9,29.53,ENE,68,0.0,0.0,87,0.00,,,0.00,WUHU216HW,2013-07-15 11:16:00,
2013-07-15 04:21:00,59.8,55.9,29.53,East,90,0.0,0.0,87,0.00,,,0.00,WUHU216HW,2013-07-15 11:21:00,
2013-07-15 04:26:00,59.6,55.7,29.53,East,90,0.0,0.0,87,0.00,,,0.00,WUHU216HW,2013-07-15 11:26:00,
2013-07-15 04:31:00,59.6,55.7,29.53,ENE,68,0.0,0.0,87,0.00,,,0.00,WUHU216HW,2013-07-15 11:31:00,
2013-07-15 04:36:00,59.6,55.7,29.53,ENE,68,0.0,0.0,87,0.00,,,0.00,WUHU216HW,2013-07-15 11:36:00,
2013-07-15 04:41:00,59.6,55.7,29.53,SSE,158,0.0,0.0,87,0.00,,,0.00,WUHU216HW,2013-07-15 11:41:00,
2013-07-15 04:46:00,59.4,55.5,29.53,ESE,113,0.0,0.0,87,0.00,,,0.00,WUHU216HW,2013-07-15 11:46:00,
2013-07-15 04:51:00,59.6,55.7,29.53,ESE,113,0.0,0.0,87,0.00,,,0.00,WUHU216HW,2013-07-15 11:51:00,
2013-07-15 04:56:00,59.4,55.5,29.54,ESE,113,0.0,0.0,87,0.00,,,0.00,WUHU216HW,2013-07-15 11:56:00,
2013-07-15 05:01:00,59.4,55.5,29.53,SSW,203,0.0,0.0,87,0.00,,,0.00,WUHU216HW,2013-07-15 12:01:00,
2013-07-15 05:06:00,59.4,55.5,29.53,SSW,203,0.0,0.0,87,0.00,,,0.00,WUHU216HW,2013-07-15 12:06:00,
2013-07-15 05:11:00,59.4,55.5,29.53,SE,135,0.0,0.0,87,0.00,,,0.00,WUHU216HW,2013-07-15 12:11:00,
2013-07-15 05:16:00,59.4,55.5,29.53,East,90,0.0,0.0,87,0.00,,,0.00,WUHU216HW,2013-07-15 12:16:00,
2013-07-15 05:21:00,59.4,55.5,29.53,NE,45,0.0,0.0,87,0.00,,,0.00,WUHU216HW,2013-07-15 12:21:00,
2013-07-15 05:26:00,59.4,55.5,29.54,NE,45,0.0,0.0,87,0.00,,,0.00,WUHU216HW,2013-07-15 12:26:00,
2013-07-15 05:31:00,59.4,55.5,29.53,NE,45,0.0,0.0,87,0.00,,,0.00,WUHU216HW,2013-07-15 12:31:00,
2013-07-15 05:36:00,59.2,55.4,29.54,NE,45,0.0,0.0,87,0.00,,,0.00,WUHU216HW,2013-07-15 12:36:00,
2013-07-15 05:41:00,59.2,55.4,29.54,NE,45,0.0,0.0,87,0.00,,,0.00,WUHU216HW,2013-07-15 12:41:00,
2013-07-15 05:46:00,59.0,55.2,29.54,ENE,68,0.0,0.0,87,0.00,,,0.00,WUHU216HW,2013-07-15 12:46:00,
2013-07-15 05:51:00,59.0,55.2,29.54,ENE,68,0.0,0.0,87,0.00,,,0.00,WUHU216HW,2013-07-15 12:51:00,
2013-07-15 05:56:00,59.0,55.2,29.54,ENE,68,0.0,0.0,87,0.00,,,0.00,WUHU216HW,2013-07-15 12:56:00,
2013-07-15 06:01:00,59.0,55.2,29.54,SE,135,0.0,0.0,87,0.00,,,0.00,WUHU216HW,2013-07-15 13:01:00,
2013-07-15 06:06:00,59.0,55.5,29.54,ESE,113,0.0,0.0,88,0.00,,,0.00,WUHU216HW,2013-07-15 13:06:00,
2013-07-15 06:11:00,59.0,55.5,29.55,ESE,113,0.0,0.0,88,0.00,,,0.00,WUHU216HW,2013-07-15 13:11:00,
2013-07-15 06:16:00,59.0,55.5,29.55,East,90,0.0,0.0,88,0.00,,,0.00,WUHU216HW,2013-07-15 13:16:00,
2013-07-15 06:21:00,59.0,55.5,29.55,NNE,23,0.0,0.0,88,0.00,,,0.00,WUHU216HW,2013-07-15 13:21:00,
2013-07-15 06:26:00,59.0,55.5,29.55,NE,45,0.0,0.0,88,0.00,,,0.00,WUHU216HW,2013-07-15 13:26:00,
2013-07-15 06:31:00,59.0,55.5,29.55,NE,45,0.0,0.0,88,0.00,,,0.00,WUHU216HW,2013-07-15 13:31:00,
2013-07-15 06:36:00,59.4,55.9,29.55,SE,135,0.0,0.0,88,0.00,,,0.00,WUHU216HW,2013-07-15 13:36:00,
2013-07-15 06:41:00,59.6,56.1,29.55,ENE,68,0.0,0.0,88,0.00,,,0.00,WUHU216HW,2013-07-15 13:41:00,
2013-07-15 06:46:00,59.9,56.4,29.55,ENE,68,0.0,0.0,88,0.00,,,0.00,WUHU216HW,2013-07-15 13:46:00,
2013-07-15 06:51:00,60.1,56.6,29.55,ESE,113,0.0,0.0,88,0.00,,,0.00,WUHU216HW,2013-07-15 13:51:00,
2013-07-15 06:56:00,60.7,57.2,29.55,ENE,68,0.0,0.0,88,0.00,,,0.00,WUHU216HW,2013-07-15 13:56:00,
2013-07-15 07:01:00,60.8,57.0,29.55,East,90,0.0,0.0,87,0.00,,,0.00,WUHU216HW,2013-07-15 14:01:00,
2013-07-15 07:06:00,61.2,57.3,29.55,SE,135,0.0,0.0,87,0.00,,,0.00,WUHU216HW,2013-07-15 14:06:00,
2013-07-15 07:11:00,61.6,57.7,29.55,SE,135,0.0,0.0,87,0.00,,,0.00,WUHU216HW,2013-07-15 14:11:00,
2013-07-15 07:16:00,62.1,58.2,29.56,ESE,113,0.0,0.0,87,0.00,,SKC,0.00,WUHU216HW,2013-07-15 14:16:00,
2013-07-15 07:21:00,62.6,58.4,29.56,SE,135,0.0,0.0,86,0.00,,SKC,0.00,WUHU216HW,2013-07-15 14:21:00,
2013-07-15 07:26:00,63.0,58.8,29.56,SE,135,0.0,0.0,86,0.00,,SKC,0.00,WUHU216HW,2013-07-15 14:26:00,
2013-07-15 07:31:00,63.4,58.8,29.56,East,90,1.1,2.9,85,0.00,,SKC,0.00,WUHU216HW,2013-07-15 14:31:00,
2013-07-15 07:36:00,64.1,59.5,29.56,East,90,1.6,2.9,85,0.00,,SKC,0.00,WUHU216HW,2013-07-15 14:36:00,
2013-07-15 07:41:00,64.8,59.9,29.56,SE,135,0.4,2.7,84,0.00,,SKC,0.00,WUHU216HW,2013-07-15 14:41:00,
2013-07-15 07:46:00,65.2,60.2,29.56,SE,135,1.8,2.5,84,0.00,,SKC,0.00,WUHU216HW,2013-07-15 14:46:00,
2013-07-15 07:51:00,65.5,60.6,29.56,South,180,1.6,2.5,84,0.00,,SKC,0.00,WUHU216HW,2013-07-15 14:51:00,
2013-07-15 07:56:00,65.9,60.6,29.56,SE,135,2.0,2.2,83,0.00,,SKC,0.00,WUHU216HW,2013-07-15 14:56:00,
2013-07-15 08:01:00,66.2,60.9,29.57,SSE,158,1.1,2.0,83,0.00,,SKC,0.00,WUHU216HW,2013-07-15 15:01:00,
2013-07-15 08:06:00,66.6,60.9,29.56,ESE,113,1.3,2.0,82,0.00,,SKC,0.00,WUHU216HW,2013-07-15 15:06:00,
2013-07-15 08:11:00,67.1,61.2,29.56,SE,135,2.5,3.1,81,0.00,,SKC,0.00,WUHU216HW,2013-07-15 15:11:00,
2013-07-15 08:17:00,67.3,61.0,29.56,ESE,113,2.9,3.1,80,0.00,,SKC,0.00,WUHU216HW,2013-07-15 15:17:00,
2013-07-15 08:22:00,67.5,61.2,29.56,ESE,113,1.6,3.4,80,0.00,,SKC,0.00,WUHU216HW,2013-07-15 15:22:00,
2013-07-15 08:27:00,68.0,61.4,29.56,ENE,68,2.9,3.4,79,0.00,,SKC,0.00,WUHU216HW,2013-07-15 15:27:00,
2013-07-15 08:32:00,68.4,61.7,29.56,WSW,248,0.7,3.4,79,0.00,,SKC,0.00,WUHU216HW,2013-07-15 15:32:00,
2013-07-15 08:37:00,68.8,62.0,29.56,SSW,203,0.7,3.4,79,0.00,,SKC,0.00,WUHU216HW,2013-07-15 15:37:00,
2013-07-15 08:42:00,69.1,60.9,29.56,WSW,248,0.9,3.4,75,0.00,,SKC,0.00,WUHU216HW,2013-07-15 15:42:00,
2013-07-15 08:47:00,69.3,61.7,29.56,SSW,203,2.7,3.4,77,0.00,,SKC,0.00,WUHU216HW,2013-07-15 15:47:00,
2013-07-15 08:52:00,69.8,61.8,29.56,SW,225,1.1,3.4,76,0.00,,SKC,0.00,WUHU216HW,2013-07-15 15:52:00,
2013-07-15 08:57:00,69.8,61.1,29.56,SSW,203,1.8,3.4,74,0.00,,SKC,0.00,WUHU216HW,2013-07-15 15:57:00,
2013-07-15 09:02:00,70.4,61.7,29.56,SSW,203,1.1,3.4,74,0.00,,SKC,0.00,WUHU216HW,2013-07-15 16:02:00,
2013-07-15 09:07:00,70.7,61.2,29.56,SW,225,1.1,2.9,72,0.00,,SKC,0.00,WUHU216HW,2013-07-15 16:07:00,
2013-07-15 09:13:00,70.6,61.0,29.56,SW,225,2.9,3.4,72,0.00,,SKC,0.00,WUHU216HW,2013-07-15 16:13:00,
2013-07-15 09:18:00,70.6,61.0,29.56,WSW,248,1.8,3.8,72,0.00,,SKC,0.00,WUHU216HW,2013-07-15 16:18:00,
2013-07-15 09:23:00,70.6,61.0,29.56,SW,225,2.5,3.8,72,0.00,,SKC,0.00,WUHU216HW,2013-07-15 16:23:00,
2013-07-15 09:28:00,70.4,61.3,29.56,SSW,203,2.5,3.1,73,0.00,,SKC,0.00,WUHU216HW,2013-07-15 16:28:00,
2013-07-15 09:33:00,70.2,60.7,29.57,WSW,248,1.1,4.0,72,0.00,,SKC,0.00,WUHU216HW,2013-07-15 16:33:00,
2013-07-15 09:39:00,69.8,60.3,29.56,SW,225,5.1,5.1,72,0.00,,SKC,0.00,WUHU216HW,2013-07-15 16:39:00,
2013-07-15 09:44:00,69.5,60.4,29.56,SW,225,3.4,5.1,73,0.00,,SKC,0.00,WUHU216HW,2013-07-15 16:44:00,
2013-07-15 09:49:00,69.5,60.4,29.56,SW,225,2.0,4.0,73,0.00,,SKC,0.00,WUHU216HW,2013-07-15 16:49:00,
2013-07-15 09:54:00,69.5,60.0,29.56,SW,225,1.8,3.8,72,0.00,,SKC,0.00,WUHU216HW,2013-07-15 16:54:00,
2013-07-15 09:59:00,69.1,59.7,29.56,WSW,248,2.7,3.8,72,0.00,,SKC,0.00,WUHU216HW,2013-07-15 16:59:00,
2013-07-15 10:04:00,68.9,60.0,29.56,WSW,248,2.7,4.7,73,0.00,,SKC,0.00,WUHU216HW,2013-07-15 17:04:00,
2013-07-15 10:09:00,69.1,59.7,29.57,SW,225,2.5,4.7,72,0.00,,SKC,0.00,WUHU216HW,2013-07-15 17:09:00,
2013-07-15 10:15:00,69.5,59.7,29.57,SSW,203,2.7,4.7,71,0.00,,SKC,0.00,WUHU216HW,2013-07-15 17:15:00,
2013-07-15 10:20:00,69.3,59.9,29.57,WSW,248,1.3,4.5,72,0.00,,,0.00,WUHU216HW,2013-07-15 17:20:00,
2013-07-15 10:25:00,69.5,59.7,29.57,WSW,248,1.8,5.6,71,0.00,,,0.00,WUHU216HW,2013-07-15 17:25:00,
2013-07-15 10:30:00,69.5,59.7,29.57,WNW,293,2.5,5.6,71,0.00,,,0.00,WUHU216HW,2013-07-15 17:30:00,
2013-07-15 10:35:00,69.5,60.0,29.57,WSW,248,2.5,4.7,72,0.00,,,0.00,WUHU216HW,2013-07-15 17:35:00,
2013-07-15 10:40:00,69.5,60.0,29.57,WSW,248,1.1,5.4,72,0.00,,,0.00,WUHU216HW,2013-07-15 17:40:00,
2013-07-15 10:45:00,69.5,59.7,29.57,WSW,248,2.5,5.4,71,0.00,,,0.00,WUHU216HW,2013-07-15 17:45:00,
2013-07-15 10:51:00,69.1,60.0,29.57,WSW,248,2.5,3.8,73,0.00,,,0.00,WUHU216HW,2013-07-15 17:51:00,
2013-07-15 10:56:00,69.1,60.5,29.57,West,270,3.1,4.0,74,0.00,,,0.00,WUHU216HW,2013-07-15 17:56:00,
2013-07-15 11:01:00,68.9,60.7,29.57,NNW,338,2.9,4.9,75,0.00,,,0.00,WUHU216HW,2013-07-15 18:01:00,
2013-07-15 11:06:00,69.1,60.9,29.57,WSW,248,4.0,4.9,75,0.00,,,0.00,WUHU216HW,2013-07-15 18:06:00,
2013-07-15 11:11:00,69.1,60.5,29.57,West,270,1.6,4.0,74,0.00,,,0.00,WUHU216HW,2013-07-15 18:11:00,
2013-07-15 11:16:00,68.9,60.3,29.57,West,270,3.4,3.4,74,0.00,,,0.00,WUHU216HW,2013-07-15 18:16:00,
2013-07-15 11:21:00,68.4,60.2,29.57,SW,225,1.3,5.1,75,0.00,,,0.00,WUHU216HW,2013-07-15 18:21:00,
2013-07-15 11:26:00,68.4,60.6,29.57,SSE,158,0.4,5.1,76,0.00,,,0.00,WUHU216HW,2013-07-15 18:26:00,
2013-07-15 11:31:00,68.4,60.2,29.57,SW,225,3.1,3.1,75,0.00,,,0.00,WUHU216HW,2013-07-15 18:31:00,
2013-07-15 11:36:00,68.0,60.2,29.57,WNW,293,3.4,4.3,76,0.00,,,0.00,WUHU216HW,2013-07-15 18:36:00,
2013-07-15 11:42:00,68.4,60.6,29.57,West,270,2.7,4.3,76,0.00,,,0.00,WUHU216HW,2013-07-15 18:42:00,
2013-07-15 11:47:00,68.6,60.8,29.57,NNW,338,1.6,6.0,76,0.00,,,0.00,WUHU216HW,2013-07-15 18:47:00,
2013-07-15 11:52:00,68.8,60.5,29.57,NW,315,2.5,6.0,75,0.00,,,0.00,WUHU216HW,2013-07-15 18:52:00,
2013-07-15 11:57:00,68.2,60.0,29.57,SE,135,1.3,4.7,75,0.00,,,0.00,WUHU216HW,2013-07-15 18:57:00,
2013-07-15 12:02:00,68.2,60.4,29.57,West,270,3.8,4.7,76,0.00,,,0.00,WUHU216HW,2013-07-15 19:02:00,
2013-07-15 12:07:00,68.0,59.9,29.57,SSW,203,2.5,4.7,75,0.00,,,0.00,WUHU216HW,2013-07-15 19:07:00,
2013-07-15 12:12:00,68.0,59.9,29.57,South,180,1.1,5.4,75,0.00,,,0.00,WUHU216HW,2013-07-15 19:12:00,
2013-07-15 12:17:00,68.0,59.9,29.57,WNW,293,2.5,5.4,75,0.00,,,0.00,WUHU216HW,2013-07-15 19:17:00,
2013-07-15 12:22:00,68.0,59.9,29.57,West,270,1.6,3.4,75,0.00,,,0.00,WUHU216HW,2013-07-15 19:22:00,
2013-07-15 12:27:00,68.0,59.5,29.57,North,0,2.7,5.4,74,0.00,,,0.00,WUHU216HW,2013-07-15 19:27:00,
2013-07-15 12:33:00,68.0,59.5,29.57,WSW,248,2.0,5.4,74,0.00,,,0.00,WUHU216HW,2013-07-15 19:33:00,
2013-07-15 12:38:00,68.4,59.8,29.57,West,270,4.0,4.0,74,0.00,,,0.00,WUHU216HW,2013-07-15 19:38:00,
2013-07-15 12:43:00,68.6,59.6,29.57,NW,315,1.6,4.3,73,0.00,,,0.00,WUHU216HW,2013-07-15 19:43:00,
2013-07-15 12:48:00,68.8,59.8,29.57,WSW,248,1.6,4.3,73,0.00,,,0.00,WUHU216HW,2013-07-15 19:48:00,
2013-07-15 12:54:00,69.1,60.0,29.57,SE,135,1.8,4.0,73,0.00,,,0.00,WUHU216HW,2013-07-15 19:54:00,
2013-07-15 12:59:00,69.1,59.7,29.57,WSW,248,1.6,3.4,72,0.00,,,0.00,WUHU216HW,2013-07-15 19:59:00,
2013-07-15 13:04:00,68.9,59.5,29.57,West,270,2.5,4.3,72,0.00,,,0.00,WUHU216HW,2013-07-15 20:04:00,
2013-07-15 13:09:00,68.8,59.8,29.57,NNE,23,1.1,4.7,73,0.00,,,0.00,WUHU216HW,2013-07-15 20:09:00,
2013-07-15 13:14:00,68.8,59.4,29.57,SW,225,2.7,4.7,72,0.00,,,0.00,WUHU216HW,2013-07-15 20:14:00,
2013-07-15 13:19:00,68.8,59.8,29.57,SSW,203,2.7,4.0,73,0.00,,,0.00,WUHU216HW,2013-07-15 20:19:00,
2013-07-15 13:24:00,69.3,59.9,29.57,NNW,338,3.4,4.0,72,0.00,,,0.00,WUHU216HW,2013-07-15 20:24:00,
2013-07-15 13:29:00,69.1,59.7,29.57,WSW,248,3.6,3.6,72,0.00,,,0.00,WUHU216HW,2013-07-15 20:29:00,
2013-07-15 13:34:00,68.9,59.5,29.57,SW,225,1.8,3.6,72,0.00,,,0.00,WUHU216HW,2013-07-15 20:34:00,
2013-07-15 13:39:00,68.9,59.5,29.56,NNW,338,1.8,4.0,72,0.00,,,0.00,WUHU216HW,2013-07-15 20:39:00,
2013-07-15 13:45:00,69.3,59.5,29.56,NNW,338,1.6,4.0,71,0.00,,,0.00,WUHU216HW,2013-07-15 20:45:00,
2013-07-15 13:50:00,69.5,60.0,29.56,West,270,1.1,2.9,72,0.00,,,0.00,WUHU216HW,2013-07-15 20:50:00,
2013-07-15 13:55:00,69.7,60.2,29.56,North,0,0.7,2.9,72,0.00,,,0.00,WUHU216HW,2013-07-15 20:55:00,
2013-07-15 14:00:00,69.8,59.9,29.56,NNW,338,2.0,2.9,71,0.00,,,0.00,WUHU216HW,2013-07-15 21:00:00,
2013-07-15 14:05:00,69.5,59.2,29.55,NNW,338,2.5,3.8,70,0.00,,,0.00,WUHU216HW,2013-07-15 21:05:00,
2013-07-15 14:10:00,69.5,59.7,29.56,WSW,248,2.2,3.8,71,0.00,,,0.00,WUHU216HW,2013-07-15 21:10:00,
2013-07-15 14:15:00,69.3,59.5,29.55,WSW,248,2.9,3.4,71,0.00,,,0.00,WUHU216HW,2013-07-15 21:15:00,
2013-07-15 14:21:00,68.9,59.5,29.55,WSW,248,1.1,3.4,72,0.00,,,0.00,WUHU216HW,2013-07-15 21:21:00,
2013-07-15 14:26:00,68.9,59.5,29.55,West,270,3.4,5.1,72,0.00,,,0.00,WUHU216HW,2013-07-15 21:26:00,
2013-07-15 14:31:00,69.1,59.3,29.55,WSW,248,6.5,6.5,71,0.00,,,0.00,WUHU216HW,2013-07-15 21:31:00,
2013-07-15 14:36:00,68.6,58.9,29.55,WNW,293,3.8,6.5,71,0.00,,,0.00,WUHU216HW,2013-07-15 21:36:00,
2013-07-15 14:41:00,68.6,59.6,29.55,WSW,248,1.8,6.5,73,0.00,,,0.00,WUHU216HW,2013-07-15 21:41:00,
2013-07-15 14:46:00,68.8,59.4,29.55,WSW,248,4.0,4.3,72,0.00,,,0.00,WUHU216HW,2013-07-15 21:46:00,
2013-07-15 14:51:00,69.1,59.7,29.55,West,270,2.5,4.3,72,0.00,,,0.00,WUHU216HW,2013-07-15 21:51:00,
2013-07-15 14:56:00,68.8,59.4,29.55,WNW,293,2.7,4.0,72,0.00,,,0.00,WUHU216HW,2013-07-15 21:56:00,
2013-07-15 15:01:00,68.4,59.0,29.55,WNW,293,3.6,4.9,72,0.00,,,0.00,WUHU216HW,2013-07-15 22:01:00,
2013-07-15 15:06:00,68.2,59.2,29.55,NW,315,1.1,4.9,73,0.00,,,0.00,WUHU216HW,2013-07-15 22:06:00,
2013-07-15 15:11:00,68.0,59.5,29.55,WSW,248,1.3,4.3,74,0.00,,,0.00,WUHU216HW,2013-07-15 22:11:00,
2013-07-15 15:17:00,68.0,59.5,29.54,SSW,203,1.8,4.3,74,0.00,,,0.00,WUHU216HW,2013-07-15 22:17:00,
2013-07-15 15:22:00,68.4,59.8,29.54,NW,315,1.1,5.1,74,0.00,,,0.00,WUHU216HW,2013-07-15 22:22:00,
2013-07-15 15:27:00,68.8,60.1,29.54,NW,315,2.5,8.3,74,0.00,,,0.00,WUHU216HW,2013-07-15 22:27:00,
2013-07-15 15:32:00,68.6,59.6,29.54,NW,315,2.9,8.3,73,0.00,,,0.00,WUHU216HW,2013-07-15 22:32:00,
2013-07-15 15:37:00,68.2,59.7,29.54,NW,315,4.0,4.0,74,0.00,,,0.00,WUHU216HW,2013-07-15 22:37:00,
2013-07-15 15:42:00,68.4,59.8,29.54,NW,315,3.6,4.0,74,0.00,,,0.00,WUHU216HW,2013-07-15 22:42:00,
2013-07-15 15:47:00,68.0,59.5,29.53,SSW,203,3.8,4.0,74,0.00,,,0.00,WUHU216HW,2013-07-15 22:47:00,
2013-07-15 15:52:00,68.0,59.5,29.53,WSW,248,2.9,4.5,74,0.00,,,0.00,WUHU216HW,2013-07-15 22:52:00,
2013-07-15 15:57:00,68.0,59.1,29.54,West,270,4.5,4.5,73,0.00,,,0.00,WUHU216HW,2013-07-15 22:57:00,
2013-07-15 16:02:00,67.3,58.8,29.53,NW,315,1.6,5.1,74,0.00,,,0.00,WUHU216HW,2013-07-15 23:02:00,
2013-07-15 16:07:00,67.3,59.1,29.53,WNW,293,1.8,5.8,75,0.00,,,0.00,WUHU216HW,2013-07-15 23:07:00,
2013-07-15 16:13:00,67.0,58.4,29.53,WSW,248,3.4,5.8,74,0.00,,,0.00,WUHU216HW,2013-07-15 23:13:00,
2013-07-15 16:18:00,67.0,58.8,29.53,WSW,248,1.3,5.4,75,0.00,,,0.00,WUHU216HW,2013-07-15 23:18:00,
2013-07-15 16:23:00,67.3,58.8,29.53,North,0,5.4,5.8,74,0.00,,,0.00,WUHU216HW,2013-07-15 23:23:00,
2013-07-15 16:29:00,67.0,58.4,29.53,South,180,4.0,6.5,74,0.00,,,0.00,WUHU216HW,2013-07-15 23:29:00,
2013-07-15 16:34:00,66.6,58.8,29.53,West,270,3.1,6.5,76,0.00,,,0.00,WUHU216HW,2013-07-15 23:34:00,
2013-07-15 16:39:00,66.6,58.8,29.52,SW,225,6.0,6.0,76,0.00,,,0.00,WUHU216HW,2013-07-15 23:39:00,
2013-07-15 16:44:00,66.4,58.6,29.53,West,270,2.2,6.0,76,0.00,,,0.00,WUHU216HW,2013-07-15 23:44:00,
2013-07-15 16:49:00,66.4,59.0,29.52,NW,315,2.9,6.0,77,0.00,,,0.00,WUHU216HW,2013-07-15 23:49:00,
2013-07-15 16:54:00,66.8,59.0,29.52,NW,315,1.8,8.3,76,0.00,,,0.00,WUHU216HW,2013-07-15 23:54:00,
2013-07-15 16:59:00,66.6,59.1,29.52,SW,225,3.4,8.3,77,0.00,,,0.00,WUHU216HW,2013-07-15 23:59:00,
2013-07-15 17:04:00,66.6,58.8,29.52,West,270,2.0,4.7,76,0.00,,,0.00,WUHU216HW,2013-07-16 00:04:00,
2013-07-15 17:09:00,66.6,58.8,29.52,WNW,293,3.4,4.5,76,0.00,,,0.00,WUHU216HW,2013-07-16 00:09:00,
2013-07-15 17:14:00,66.2,58.4,29.52,West,270,7.2,7.2,76,0.00,,,0.00,WUHU216HW,2013-07-16 00:14:00,
2013-07-15 17:19:00,66.1,58.6,29.52,SW,225,2.2,7.2,77,0.00,,,0.00,WUHU216HW,2013-07-16 00:19:00,
2013-07-15 17:25:00,66.4,59.0,29.52,West,270,2.5,4.0,77,0.00,,,0.00,WUHU216HW,2013-07-16 00:25:00,
2013-07-15 17:30:00,66.6,58.8,29.52,WNW,293,6.9,6.9,76,0.00,,,0.00,WUHU216HW,2013-07-16 00:30:00,
2013-07-15 17:35:00,66.2,58.8,29.52,WNW,293,4.7,6.9,77,0.00,,,0.00,WUHU216HW,2013-07-16 00:35:00,
2013-07-15 17:40:00,66.1,58.6,29.51,NNW,338,2.0,6.9,77,0.00,,,0.00,WUHU216HW,2013-07-16 00:40:00,
2013-07-15 17:45:00,65.9,58.9,29.51,WSW,248,4.0,6.3,78,0.00,,,0.00,WUHU216HW,2013-07-16 00:45:00,
2013-07-15 17:50:00,65.9,58.9,29.51,ESE,113,2.5,4.0,78,0.00,,,0.00,WUHU216HW,2013-07-16 00:50:00,
2013-07-15 17:56:00,65.7,58.7,29.51,SW,225,1.6,5.8,78,0.00,,,0.00,WUHU216HW,2013-07-16 00:56:00,
2013-07-15 18:01:00,65.5,58.9,29.51,West,270,3.1,5.8,79,0.00,,,0.00,WUHU216HW,2013-07-16 01:01:00,
2013-07-15 18:06:00,65.5,58.5,29.51,WSW,248,4.3,4.9,78,0.00,,,0.00,WUHU216HW,2013-07-16 01:06:00,
2013-07-15 18:11:00,65.2,58.5,29.51,WSW,248,2.0,4.9,79,0.00,,,0.00,WUHU216HW,2013-07-16 01:11:00,
2013-07-15 18:16:00,65.0,58.3,29.51,WNW,293,2.0,4.7,79,0.00,,,0.00,WUHU216HW,2013-07-16 01:16:00,
2013-07-15 18:21:00,64.8,58.5,29.50,NW,315,0.7,4.7,80,0.00,,,0.00,WUHU216HW,2013-07-16 01:21:00,
2013-07-15 18:26:00,64.8,58.5,29.50,NNW,338,2.9,4.7,80,0.00,,,0.00,WUHU216HW,2013-07-16 01:26:00,
2013-07-15 18:32:00,64.6,58.3,29.50,SW,225,1.6,4.5,80,0.00,,,0.00,WUHU216HW,2013-07-16 01:32:00,
2013-07-15 18:37:00,64.6,58.3,29.50,NW,315,2.7,4.5,80,0.00,,,0.00,WUHU216HW,2013-07-16 01:37:00,
2013-07-15 18:42:00,65.0,58.7,29.51,West,270,1.6,4.0,80,0.00,,,0.00,WUHU216HW,2013-07-16 01:42:00,
2013-07-15 18:47:00,65.2,58.9,29.51,NW,315,1.1,2.7,80,0.00,,,0.00,WUHU216HW,2013-07-16 01:47:00,
2013-07-15 18:52:00,65.3,58.7,29.51,SE,135,1.1,2.2,79,0.00,,,0.00,WUHU216HW,2013-07-16 01:52:00,
2013-07-15 18:57:00,65.2,58.5,29.51,SSW,203,3.4,3.4,79,0.00,,,0.00,WUHU216HW,2013-07-16 01:57:00,
2013-07-15 19:02:00,64.6,58.3,29.52,West,270,1.6,4.7,80,0.00,,,0.00,WUHU216HW,2013-07-16 02:02:00,
2013-07-15 19:07:00,64.3,58.3,29.51,WNW,293,0.7,4.7,81,0.00,,,0.00,WUHU216HW,2013-07-16 02:07:00,
2013-07-15 19:12:00,64.1,57.8,29.51,WSW,248,2.0,3.4,80,0.00,,,0.00,WUHU216HW,2013-07-16 02:12:00,
2013-07-15 19:17:00,63.7,57.8,29.51,WSW,248,3.6,3.6,81,0.00,,,0.00,WUHU216HW,2013-07-16 02:17:00,
2013-07-15 19:22:00,63.7,57.8,29.51,West,270,1.1,3.6,81,0.00,,,0.00,WUHU216HW,2013-07-16 02:22:00,
2013-07-15 19:27:00,63.5,57.6,29.51,SW,225,1.3,3.6,81,0.00,,,0.00,WUHU216HW,2013-07-16 02:27:00,
2013-07-15 19:32:00,63.4,57.8,29.51,South,180,1.6,3.1,82,0.00,,,0.00,WUHU216HW,2013-07-16 02:32:00,
2013-07-15 19:38:00,63.4,57.8,29.51,WSW,248,2.2,3.4,82,0.00,,,0.00,WUHU216HW,2013-07-16 02:38:00,
2013-07-15 19:42:00,63.0,57.7,29.51,WSW,248,2.2,3.4,83,0.00,,,0.00,WUHU216HW,2013-07-16 02:42:00,
2013-07-15 19:48:00,62.8,57.5,29.51,WSW,248,2.0,3.4,83,0.00,,,0.00,WUHU216HW,2013-07-16 02:48:00,
2013-07-15 19:53:00,62.6,57.3,29.51,NW,315,0.4,3.4,83,0.00,,,0.00,WUHU216HW,2013-07-16 02:53:00,
2013-07-15 19:58:00,62.3,57.1,29.51,WSW,248,1.1,2.5,83,0.00,,,0.00,WUHU216HW,2013-07-16 02:58:00,
2013-07-15 20:03:00,62.3,57.3,29.51,West,270,0.9,2.5,84,0.00,,,0.00,WUHU216HW,2013-07-16 03:03:00,
2013-07-15 20:08:00,61.9,57.1,29.51,West,270,2.2,2.5,84,0.00,,,0.00,WUHU216HW,2013-07-16 03:08:00,
2013-07-15 20:13:00,61.7,57.2,29.51,WNW,293,0.4,2.2,85,0.00,,,0.00,WUHU216HW,2013-07-16 03:13:00,
2013-07-15 20:18:00,61.6,57.1,29.51,West,270,1.1,2.2,85,0.00,,,0.00,WUHU216HW,2013-07-16 03:18:00,
2013-07-15 20:23:00,61.6,57.1,29.51,WSW,248,0.2,2.0,85,0.00,,,0.00,WUHU216HW,2013-07-16 03:23:00,
2013-07-15 20:28:00,61.6,57.1,29.51,WSW,248,2.5,2.5,85,0.00,,,0.00,WUHU216HW,2013-07-16 03:28:00,
2013-07-15 20:33:00,61.4,56.9,29.52,SW,225,1.1,2.5,85,0.00,,,0.00,WUHU216HW,2013-07-16 03:33:00,
2013-07-15 20:38:00,61.6,57.1,29.52,SSW,203,1.1,2.5,85,0.00,,,0.00,WUHU216HW,2013-07-16 03:38:00,
2013-07-15 20:43:00,61.4,56.9,29.52,SW,225,0.4,1.8,85,0.00,,,0.00,WUHU216HW,2013-07-16 03:43:00,
2013-07-15 20:48:00,61.4,56.9,29.52,WNW,293,0.2,2.2,85,0.00,,,0.00,WUHU216HW,2013-07-16 03:48:00,
2013-07-15 20:53:00,61.4,56.9,29.52,WSW,248,0.9,2.2,85,0.00,,,0.00,WUHU216HW,2013-07-16 03:53:00,
2013-07-15 20:59:00,61.2,56.7,29.52,WSW,248,0.4,2.0,85,0.00,,,0.00,WUHU216HW,2013-07-16 03:59:00,
2013-07-15 21:01:00,61.2,56.7,29.53,WSW,248,0.4,2.0,85,0.00,,,0.00,WUHU216HW,2013-07-16 04:01:00,
2013-07-15 21:06:00,61.2,56.7,29.53,NW,315,0.7,0.9,85,0.00,,,0.00,WUHU216HW,2013-07-16 04:06:00,
2013-07-15 21:11:00,61.2,56.7,29.53,WSW,248,1.1,1.8,85,0.00,,,0.00,WUHU216HW,2013-07-16 04:11:00,
2013-07-15 21:16:00,61.0,56.5,29.53,SW,225,0.2,1.8,85,0.00,,,0.00,WUHU216HW,2013-07-16 04:16:00,
2013-07-15 21:21:00,61.0,56.5,29.53,West,270,0.2,1.1,85,0.00,,,0.00,WUHU216HW,2013-07-16 04:21:00,
2013-07-15 21:26:00,60.8,56.3,29.53,WNW,293,0.4,1.1,85,0.00,,,0.00,WUHU216HW,2013-07-16 04:26:00,
2013-07-15 21:31:00,61.0,56.5,29.54,WNW,293,0.0,0.7,85,0.00,,,0.00,WUHU216HW,2013-07-16 04:31:00,
2013-07-15 21:36:00,61.0,56.5,29.54,WNW,293,0.0,0.4,85,0.00,,,0.00,WUHU216HW,2013-07-16 04:36:00,
2013-07-15 21:41:00,60.8,56.3,29.54,WSW,248,0.0,0.9,85,0.00,,,0.00,WUHU216HW,2013-07-16 04:41:00,
2013-07-15 21:46:00,60.8,56.3,29.54,NNE,23,0.4,0.9,85,0.00,,,0.00,WUHU216HW,2013-07-16 04:46:00,
2013-07-15 21:51:00,60.8,56.3,29.54,East,90,0.9,0.9,85,0.00,,,0.00,WUHU216HW,2013-07-16 04:51:00,
2013-07-15 21:56:00,60.8,56.3,29.55,East,90,1.3,1.3,85,0.00,,,0.00,WUHU216HW,2013-07-16 04:56:00,
2013-07-15 22:01:00,60.8,56.3,29.55,ESE,113,0.9,1.3,85,0.00,,,0.00,WUHU216HW,2013-07-16 05:01:00,
2013-07-15 22:06:00,60.7,56.2,29.55,ESE,113,0.0,1.3,85,0.00,,,0.00,WUHU216HW,2013-07-16 05:06:00,
2013-07-15 22:11:00,60.7,56.2,29.55,ESE,113,0.0,0.9,85,0.00,,,0.00,WUHU216HW,2013-07-16 05:11:00,
2013-07-15 22:16:00,60.7,56.2,29.55,East,90,0.7,0.9,85,0.00,,,0.00,WUHU216HW,2013-07-16 05:16:00,
2013-07-15 22:21:00,60.7,56.2,29.55,North,0,0.4,0.9,85,0.00,,,0.00,WUHU216HW,2013-07-16 05:21:00,
2013-07-15 22:26:00,60.7,56.2,29.55,NNE,23,1.1,1.1,85,0.00,,,0.00,WUHU216HW,2013-07-16 05:26:00,
2013-07-15 22:31:00,60.5,56.0,29.55,NNE,23,0.4,1.6,85,0.00,,,0.00,WUHU216HW,2013-07-16 05:31:00,
2013-07-15 22:36:00,60.3,55.8,29.55,NNE,23,0.4,1.6,85,0.00,,,0.00,WUHU216HW,2013-07-16 05:36:00,
2013-07-15 22:41:00,60.3,55.8,29.55,NNE,23,0.0,0.7,85,0.00,,,0.00,WUHU216HW,2013-07-16 05:41:00,
2013-07-15 22:46:00,60.1,55.6,29.55,NNE,23,1.1,1.1,85,0.00,,,0.00,WUHU216HW,2013-07-16 05:46:00,
2013-07-15 22:51:00,60.1,55.6,29.55,NNE,23,0.4,1.1,85,0.00,,,0.00,WUHU216HW,2013-07-16 05:51:00,
2013-07-15 22:56:00,60.1,55.6,29.55,NE,45,0.0,1.1,85,0.00,,,0.00,WUHU216HW,2013-07-16 05:56:00,
2013-07-15 23:01:00,59.9,55.4,29.55,NE,45,0.0,0.9,85,0.00,,,0.00,WUHU216HW,2013-07-16 06:01:00,
2013-07-15 23:06:00,59.9,55.4,29.55,NE,45,0.0,0.0,85,0.00,,,0.00,WUHU216HW,2013-07-16 06:06:00,
2013-07-15 23:11:00,59.8,55.3,29.55,NNE,23,0.0,0.0,85,0.00,,,0.00,WUHU216HW,2013-07-16 06:11:00,
2013-07-15 23:16:00,59.8,55.3,29.55,NNE,23,0.0,0.0,85,0.00,,,0.00,WUHU216HW,2013-07-16 06:16:00,
2013-07-15 23:21:00,59.6,55.1,29.56,NNE,23,0.9,1.1,85,0.00,,,0.00,WUHU216HW,2013-07-16 06:21:00,
2013-07-15 23:26:00,59.4,54.9,29.55,NNE,23,0.7,1.1,85,0.00,,,0.00,WUHU216HW,2013-07-16 06:26:00,
2013-07-15 23:31:00,59.4,54.9,29.55,NNE,23,1.1,1.1,85,0.00,,,0.00,WUHU216HW,2013-07-16 06:31:00,
2013-07-15 23:36:00,59.4,54.9,29.56,NNE,23,0.7,1.1,85,0.00,,,0.00,WUHU216HW,2013-07-16 06:36:00,
2013-07-15 23:41:00,59.2,54.7,29.55,NNE,23,0.0,1.1,85,0.00,,,0.00,WUHU216HW,2013-07-16 06:41:00,
2013-07-15 23:46:00,59.2,54.7,29.56,NNE,23,0.0,0.9,85,0.00,,,0.00,WUHU216HW,2013-07-16 06:46:00,
2013-07-15 23:51:00,59.0,54.5,29.56,NE,45,0.0,0.4,85,0.00,,,0.00,WUHU216HW,2013-07-16 06:51:00,
2013-07-15 23:56:00,59.0,54.5,29.56,NE,45,0.0,0.4,85,0.00,,,0.00,WUHU216HW,2013-07-16 06:56:00,